Time;durP1;ratioP1;P1;durP2;ratioP2;P2;SDS_P1;SDS_P2;PMS_P1;PMS_P2;Temp;Humidity;BMP_temperature;BMP_pressure;BME280_temperature;BME280_humidity;BME280_pressure;Samples;Min_cycle;Max_cycle;Signal;HPM_P1;HPM_P2
2021/12/13 14:46:15;;;;;;;27.13;20.60;;;6.50;99.90;;;;;;5068192;28;1342463;-55
2021/12/13 14:48:43;;;;;;;28.30;21.10;;;6.50;99.90;;;;;;5113927;28;20039;-51
2021/12/13 14:51:13;;;;;;;26.33;19.67;;;6.60;99.90;;;;;;5117462;28;20044;-54
2021/12/13 14:53:42;;;;;;;30.50;22.00;;;6.50;99.90;;;;;;5118307;28;20122;-57
2021/12/13 14:56:21;;;;;;;29.90;21.58;;;6.50;99.90;;;;;;5117999;28;20062;-48
2021/12/13 14:58:55;;;;;;;28.30;21.77;;;6.50;99.90;;;;;;5117960;28;20023;-56
2021/12/13 15:01:27;;;;;;;32.75;23.67;;;6.40;99.90;;;;;;5118153;28;20027;-54
2021/12/13 15:03:58;;;;;;;30.65;22.73;;;6.30;99.90;;;;;;5122574;27;20054;-48
2021/12/13 15:06:25;;;;;;;42.23;31.37;;;6.30;99.90;;;;;;5045183;28;20373;-48
2021/12/13 15:09:02;;;;;;;28.73;19.77;;;6.40;99.90;;;;;;5076289;28;20055;-48
2021/12/13 15:11:37;;;;;;;26.35;18.35;;;6.40;99.90;;;;;;5074694;28;20044;-50
2021/12/13 15:14:07;;;;;;;20.85;16.05;;;6.40;99.90;;;;;;5038103;28;20036;-52
2021/12/13 15:16:37;;;;;;;22.90;16.60;;;6.40;99.90;;;;;;5054694;28;20033;-48
2021/12/13 15:19:09;;;;;;;28.67;23.08;;;6.30;99.90;;;;;;5034371;28;20037;-48
2021/12/13 15:21:51;;;;;;;33.92;26.88;;;6.30;99.90;;;;;;5003647;28;20171;-45
2021/12/13 15:24:20;;;;;;;32.58;25.58;;;6.30;99.90;;;;;;5033118;28;20132;-51
2021/12/13 15:26:54;;;;;;;36.45;24.35;;;6.20;99.90;;;;;;5034129;28;20099;-52
2021/12/13 15:29:23;;;;;;;33.53;25.88;;;6.20;99.90;;;;;;5038775;28;20040;-46
2021/12/13 15:31:56;;;;;;;54.50;37.33;;;6.20;99.90;;;;;;5044300;28;20041;-53
2021/12/13 15:34:25;;;;;;;53.30;35.80;;;6.20;99.90;;;;;;5040909;28;20044;-52
2021/12/13 15:36:52;;;;;;;37.40;27.17;;;6.20;99.90;;;;;;5059622;28;20033;-52
2021/12/13 15:39:20;;;;;;;31.45;24.33;;;6.10;99.90;;;;;;5074006;28;20527;-47
2021/12/13 15:41:48;;;;;;;44.50;30.50;;;6.20;99.90;;;;;;5074432;28;20020;-53
2021/12/13 15:44:16;;;;;;;44.13;29.58;;;6.20;99.90;;;;;;5073973;28;20127;-48
2021/12/13 15:46:49;;;;;;;38.08;26.15;;;6.20;99.90;;;;;;5074015;28;20111;-46
2021/12/13 15:52:09;;;;;;;56.13;38.78;;;6.20;99.90;;;;;;5136979;27;20062;-52
2021/12/13 15:54:40;;;;;;;71.00;48.08;;;6.20;99.90;;;;;;5136878;27;20027;-48
2021/12/13 15:57:10;;;;;;;78.97;50.17;;;6.20;99.90;;;;;;5137003;27;20065;-48
2021/12/13 15:59:40;;;;;;;68.70;48.15;;;6.20;99.90;;;;;;5137169;27;20110;-47
2021/12/13 16:02:13;;;;;;;75.65;50.80;;;6.20;99.90;;;;;;5134484;27;20019;-50
2021/12/13 16:04:43;;;;;;;48.22;35.65;;;6.20;99.90;;;;;;5093937;28;20177;-54
2021/12/13 16:07:12;;;;;;;75.20;45.50;;;6.20;99.90;;;;;;5093654;28;20063;-48
2021/12/13 16:09:47;;;;;;;97.40;57.08;;;6.20;99.90;;;;;;5093733;28;20051;-52
2021/12/13 16:12:17;;;;;;;126.03;73.30;;;6.20;99.90;;;;;;5094191;28;20038;-54
2021/12/13 16:14:46;;;;;;;100.70;64.50;;;6.20;99.90;;;;;;5093597;28;20055;-51
2021/12/13 16:17:22;;;;;;;95.07;62.20;;;6.20;99.90;;;;;;5093645;28;20142;-48
2021/12/13 16:20:07;;;;;;;116.18;67.70;;;6.20;99.90;;;;;;5093437;28;20075;-52
2021/12/13 16:22:41;;;;;;;94.95;62.10;;;6.30;99.90;;;;;;5043270;28;20043;-52
2021/12/13 16:25:12;;;;;;;48.95;34.90;;;6.30;99.90;;;;;;5058568;28;20419;-49
2021/12/13 16:27:54;;;;;;;39.03;27.17;;;6.30;99.90;;;;;;5093119;28;20032;-51
2021/12/13 16:30:23;;;;;;;37.85;26.92;;;6.30;99.90;;;;;;5059756;28;20032;-54
2021/12/13 16:32:50;;;;;;;37.40;27.92;;;6.30;99.90;;;;;;5024956;28;20036;-52
2021/12/13 16:35:17;;;;;;;32.22;24.92;;;6.20;99.90;;;;;;5073536;27;20114;-50
2021/12/13 16:37:43;;;;;;;32.33;24.90;;;6.30;99.90;;;;;;5135279;27;20474;-49
2021/12/13 16:40:10;;;;;;;34.10;24.45;;;6.20;99.90;;;;;;5135119;27;20105;-53
2021/12/13 16:42:36;;;;;;;41.47;30.40;;;6.20;99.90;;;;;;5098760;27;20119;-51
2021/12/13 16:45:06;;;;;;;74.90;47.58;;;6.20;99.90;;;;;;5134741;27;20066;-51
2021/12/13 16:47:33;;;;;;;67.38;46.78;;;6.20;99.90;;;;;;5115375;27;20042;-51
2021/12/13 16:50:01;;;;;;;84.10;53.38;;;6.20;99.90;;;;;;5135077;27;20386;-48
2021/12/13 16:52:29;;;;;;;109.90;69.07;;;6.20;99.90;;;;;;5134800;27;20030;-49
2021/12/13 16:55:03;;;;;;;96.13;61.88;;;6.20;99.90;;;;;;5134714;27;20042;-50
2021/12/13 16:57:46;;;;;;;96.93;59.33;;;6.20;99.90;;;;;;5117699;27;20024;-53
2021/12/13 17:00:22;;;;;;;84.82;53.03;;;6.10;99.90;;;;;;5071069;28;20446;-53
2021/12/13 17:02:48;;;;;;;93.10;56.22;;;6.20;99.90;;;;;;5068393;28;20024;-48
2021/12/13 17:05:24;;;;;;;63.90;40.67;;;6.10;99.90;;;;;;5071097;28;20431;-51
2021/12/13 17:07:53;;;;;;;154.38;90.63;;;6.10;99.90;;;;;;5068837;28;20508;-49
2021/12/13 17:10:37;;;;;;;64.68;45.47;;;6.10;99.90;;;;;;5070834;28;20047;-53
2021/12/13 17:13:32;;;;;;;40.28;31.30;;;6.00;99.90;;;;;;5070165;28;20037;-47
2021/12/13 17:16:08;;;;;;;38.97;30.52;;;6.10;99.90;;;;;;5011101;28;20790;-48
2021/12/13 17:18:47;;;;;;;44.80;34.85;;;6.10;99.90;;;;;;4994672;28;20069;-50
2021/12/13 17:21:19;;;;;;;55.08;38.38;;;6.20;99.90;;;;;;5011126;28;20049;-50
2021/12/13 17:23:47;;;;;;;50.40;37.83;;;6.20;99.90;;;;;;5010861;28;20025;-51
2021/12/13 17:26:44;;;;;;;51.00;38.28;;;6.20;99.90;;;;;;5011015;28;20495;-55
2021/12/13 17:29:35;;;;;;;96.15;49.20;;;6.20;99.90;;;;;;4991410;28;20473;-53
2021/12/13 17:32:19;;;;;;;52.30;35.47;;;6.30;99.90;;;;;;5008033;28;20057;-49
2021/12/13 17:34:51;;;;;;;95.90;66.80;;;6.30;99.90;;;;;;4994158;28;20038;-50
2021/12/13 17:37:25;;;;;;;199.03;120.40;;;6.30;99.90;;;;;;5009800;28;20030;-51
2021/12/13 17:40:07;;;;;;;44.05;30.90;;;6.30;99.90;;;;;;5010289;28;20329;-49
2021/12/13 17:42:43;;;;;;;113.43;67.63;;;6.30;99.90;;;;;;5010234;28;20045;-54
2021/12/13 17:45:20;;;;;;;58.60;39.35;;;6.30;99.90;;;;;;5009599;28;20052;-50
2021/12/13 17:47:51;;;;;;;90.03;62.60;;;6.30;99.90;;;;;;5010299;28;20065;-53
2021/12/13 17:50:27;;;;;;;110.07;73.88;;;6.30;99.90;;;;;;5010535;28;20044;-48
2021/12/13 17:52:58;;;;;;;77.38;51.78;;;6.30;99.90;;;;;;5024042;28;20139;-47
2021/12/13 17:55:26;;;;;;;56.15;41.70;;;6.30;99.90;;;;;;5050215;28;20071;-50
2021/12/13 17:57:54;;;;;;;82.72;60.72;;;6.30;99.90;;;;;;5066566;28;20037;-51
2021/12/13 18:00:40;;;;;;;74.75;55.17;;;6.20;99.90;;;;;;5050159;28;20068;-50
2021/12/13 18:03:34;;;;;;;71.57;48.53;;;6.20;99.90;;;;;;5049663;28;20032;-52
2021/12/13 18:06:21;;;;;;;67.93;49.47;;;6.20;99.90;;;;;;5068319;28;20042;-53
2021/12/13 18:09:22;;;;;;;72.95;53.53;;;6.10;99.90;;;;;;5056314;28;20072;-54
2021/12/13 18:11:56;;;;;;;66.65;46.20;;;6.10;99.90;;;;;;5090504;28;20056;-47
2021/12/13 18:14:33;;;;;;;73.60;46.63;;;6.10;99.90;;;;;;5090222;28;20024;-49
2021/12/13 18:17:22;;;;;;;63.58;41.38;;;6.10;99.90;;;;;;5089967;28;20024;-45
2021/12/13 18:19:51;;;;;;;77.93;44.42;;;6.10;99.90;;;;;;5090046;28;20114;-45
2021/12/13 18:22:35;;;;;;;218.80;122.57;;;6.00;99.90;;;;;;5089567;28;20434;-51
2021/12/13 18:25:30;;;;;;;195.43;103.97;;;6.00;99.90;;;;;;5112324;28;20387;-54
2021/12/13 18:28:03;;;;;;;149.15;83.93;;;6.00;99.90;;;;;;5109400;28;20040;-50
2021/12/13 18:30:39;;;;;;;74.20;46.63;;;6.00;99.90;;;;;;5112192;28;20428;-53
2021/12/13 18:33:23;;;;;;;77.93;51.88;;;5.90;99.90;;;;;;5094597;28;20074;-53
2021/12/13 18:36:01;;;;;;;63.45;40.30;;;5.80;99.90;;;;;;5113115;28;20049;-51
2021/12/13 18:38:39;;;;;;;80.30;54.50;;;5.60;99.90;;;;;;5112425;28;20020;-52
2021/12/13 18:41:10;;;;;;;57.83;38.70;;;5.50;99.90;;;;;;5076349;28;20487;-52
2021/12/13 18:44:09;;;;;;;63.72;40.90;;;5.30;99.90;;;;;;5113081;28;20059;-49
2021/12/13 18:46:43;;;;;;;63.40;41.28;;;5.20;99.90;;;;;;5112797;28;20122;-56
2021/12/13 18:49:14;;;;;;;65.75;42.95;;;5.20;99.90;;;;;;5112853;28;20032;-56
2021/12/13 18:51:55;;;;;;;66.45;42.83;;;5.20;99.90;;;;;;5093734;28;20134;-53
2021/12/13 18:54:45;;;;;;;64.97;40.78;;;5.10;99.90;;;;;;5090800;28;20032;-52
2021/12/13 18:57:21;;;;;;;52.00;34.08;;;5.10;99.90;;;;;;5112534;28;20115;-48
2021/12/13 19:00:09;;;;;;;80.68;46.63;;;5.00;99.90;;;;;;5076487;28;20087;-56
2021/12/13 19:02:46;;;;;;;107.13;53.17;;;5.00;99.90;;;;;;5093305;28;20169;-52
2021/12/13 19:05:40;;;;;;;90.32;47.75;;;4.90;99.90;;;;;;5076367;28;20125;-57
2021/12/13 19:08:28;;;;;;;93.50;48.92;;;4.90;99.90;;;;;;5080979;28;20391;-51
2021/12/13 19:11:15;;;;;;;58.05;36.65;;;4.90;99.90;;;;;;5111835;28;20508;-52
2021/12/13 19:13:55;;;;;;;68.47;42.03;;;4.90;99.90;;;;;;5093329;28;20040;-57
2021/12/13 19:16:39;;;;;;;91.88;53.53;;;4.80;99.90;;;;;;5076257;28;20153;-56
2021/12/13 19:19:16;;;;;;;65.55;40.08;;;4.80;99.90;;;;;;5112106;28;20102;-55
2021/12/13 19:21:54;;;;;;;80.80;51.10;;;4.80;99.90;;;;;;5112233;28;20099;-55
2021/12/13 19:24:23;;;;;;;60.08;38.17;;;4.90;99.90;;;;;;5076140;28;20038;-58
2021/12/13 19:26:55;;;;;;;52.75;35.83;;;4.80;99.90;;;;;;5108867;28;20482;-54
2021/12/13 19:29:35;;;;;;;69.70;43.17;;;4.80;99.90;;;;;;5055486;28;20175;-56
2021/12/13 19:32:17;;;;;;;100.45;56.90;;;4.80;99.90;;;;;;5089696;28;20132;-56
2021/12/13 19:34:52;;;;;;;84.47;47.83;;;4.80;99.90;;;;;;5086666;28;20028;-53
2021/12/13 19:37:22;;;;;;;62.40;39.05;;;4.80;99.90;;;;;;5026399;28;20040;-53
2021/12/13 19:39:56;;;;;;;69.38;44.78;;;4.80;99.90;;;;;;5062072;28;20157;-58
2021/12/13 19:42:25;;;;;;;78.63;50.55;;;;;;;;;;5070144;28;20024;-60
2021/12/13 19:44:55;;;;;;;77.28;48.75;;;4.90;99.90;;;;;;5070924;28;20040;-54
2021/12/13 19:47:26;;;;;;;71.00;43.75;;;4.90;99.90;;;;;;5046622;28;20048;-47
2021/12/13 19:50:00;;;;;;;67.05;41.30;;;5.00;99.90;;;;;;5072729;28;20508;-53
2021/12/13 19:53:01;;;;;;;58.97;33.85;;;5.00;99.90;;;;;;5067068;28;20029;-50
2021/12/13 19:55:30;;;;;;;62.33;38.38;;;5.00;99.90;;;;;;5056444;28;20060;-49
2021/12/13 19:58:08;;;;;;;56.78;35.53;;;5.00;99.90;;;;;;5062680;28;20029;-53
2021/12/13 20:00:35;;;;;;;77.53;47.70;;;5.00;99.90;;;;;;5004961;28;20147;-46
2021/12/13 20:03:18;;;;;;;67.95;45.47;;;5.00;99.90;;;;;;5114930;28;20455;-46
2021/12/13 20:05:52;;;;;;;45.63;30.67;;;5.10;99.90;;;;;;5090266;28;20047;-49
2021/12/13 20:08:20;;;;;;;46.88;29.88;;;5.00;99.90;;;;;;5107671;28;20031;-46
2021/12/13 20:10:49;;;;;;;39.38;25.42;;;5.00;99.90;;;;;;5060058;28;20397;-47
2021/12/13 20:13:32;;;;;;;42.83;29.05;;;5.00;99.90;;;;;;5112794;28;20034;-51
2021/12/13 20:16:04;;;;;;;50.58;31.83;;;5.00;99.90;;;;;;5108575;28;20035;-49
2021/12/13 20:18:39;;;;;;;32.28;23.38;;;5.00;99.90;;;;;;5111145;28;20027;-50
2021/12/13 20:21:17;;;;;;;29.65;21.17;;;5.00;99.90;;;;;;5113553;28;20528;-47
2021/12/13 20:24:19;;;;;;;37.72;27.00;;;5.00;99.90;;;;;;5111798;28;20441;-51
2021/12/13 20:26:57;;;;;;;34.72;24.48;;;5.00;99.90;;;;;;5029919;28;20156;-50
2021/12/13 20:29:27;;;;;;;28.55;22.77;;;4.90;99.90;;;;;;5043241;28;20575;-46
2021/12/13 20:32:08;;;;;;;33.15;21.98;;;4.90;99.90;;;;;;5048413;28;20072;-46
2021/12/13 20:34:55;;;;;;;34.35;25.73;;;4.90;99.90;;;;;;5029545;28;20052;-48
2021/12/13 20:37:34;;;;;;;31.88;24.33;;;4.90;99.90;;;;;;5034546;28;20421;-48
2021/12/13 20:40:15;;;;;;;30.45;21.65;;;4.90;99.90;;;;;;5031544;28;20030;-48
2021/12/13 20:43:07;;;;;;;31.53;23.03;;;4.90;99.90;;;;;;5031687;28;20032;-51
2021/12/13 20:45:51;;;;;;;33.78;24.08;;;4.80;99.90;;;;;;4972336;28;20073;-51
2021/12/13 20:48:23;;;;;;;29.15;21.65;;;4.90;99.90;;;;;;4956284;28;20042;-51
2021/12/13 20:50:59;;;;;;;31.52;23.40;;;4.90;99.90;;;;;;4941116;28;20035;-47
2021/12/13 20:53:28;;;;;;;25.55;19.63;;;4.90;99.90;;;;;;4940406;28;20070;-48
2021/12/13 20:56:09;;;;;;;27.10;19.30;;;4.90;99.90;;;;;;4972584;28;20439;-48
2021/12/13 20:58:51;;;;;;;29.08;20.95;;;4.90;99.90;;;;;;4956177;28;20069;-48
2021/12/13 21:01:19;;;;;;;;;;;4.90;99.90;;;;;;4973039;28;20498;-48
2021/12/13 21:04:12;;;;;;;29.23;19.95;;;5.00;99.90;;;;;;5022006;28;20003;-49
2021/12/13 21:06:54;;;;;;;29.48;20.58;;;5.00;99.90;;;;;;4959158;28;20107;-47
2021/12/13 21:09:23;;;;;;;30.85;22.42;;;5.00;99.90;;;;;;4936824;29;20134;-50
2021/12/13 21:11:52;;;;;;;40.50;25.08;;;5.00;99.90;;;;;;4952947;29;20368;-50
2021/12/13 21:14:26;;;;;;;35.60;23.65;;;5.00;99.90;;;;;;4952887;29;20031;-46
2021/12/13 21:16:57;;;;;;;36.50;24.48;;;5.00;99.90;;;;;;4952306;29;20047;-48
2021/12/13 21:19:31;;;;;;;28.77;20.67;;;5.00;99.90;;;;;;4971288;28;20116;-51
2021/12/13 21:22:09;;;;;;;32.28;23.35;;;5.00;99.90;;;;;;4988580;28;20045;-48
2021/12/13 21:24:43;;;;;;;31.25;22.50;;;5.00;99.90;;;;;;5017388;28;20040;-51
2021/12/13 21:27:17;;;;;;;30.42;23.25;;;5.00;99.90;;;;;;5033849;28;20392;-52
2021/12/13 21:29:48;;;;;;;28.58;20.80;;;5.00;99.90;;;;;;5047941;28;20389;-49
2021/12/13 21:32:24;;;;;;;34.13;21.87;;;5.00;99.90;;;;;;5050241;28;20028;-52
2021/12/13 21:35:15;;;;;;;31.95;22.58;;;5.00;99.90;;;;;;5051327;28;20033;-53
2021/12/13 21:40:39;;;;;;;29.65;20.70;;;5.10;99.90;;;;;;5038409;28;20039;-49
2021/12/13 21:43:07;;;;;;;30.85;20.83;;;5.10;99.90;;;;;;5068197;28;20129;-50
2021/12/13 21:45:55;;;;;;;40.55;27.27;;;5.10;99.90;;;;;;5114154;28;20055;-46
2021/12/13 21:48:32;;;;;;;38.58;25.13;;;5.10;99.90;;;;;;5114322;28;20545;-47
2021/12/13 21:51:06;;;;;;;55.65;33.30;;;5.10;99.90;;;;;;5078742;28;20119;-49
2021/12/13 21:53:35;;;;;;;45.80;29.83;;;5.00;99.90;;;;;;5096714;28;20454;-48
2021/12/13 21:56:13;;;;;;;39.80;27.52;;;5.00;99.90;;;;;;5114718;28;20035;-52
2021/12/13 21:58:49;;;;;;;32.22;22.92;;;5.00;99.90;;;;;;5113781;28;20131;-51
2021/12/13 22:01:32;;;;;;;38.38;26.80;;;5.00;99.90;;;;;;5114147;28;20030;-49
2021/12/13 22:04:07;;;;;;;64.28;37.72;;;5.10;99.90;;;;;;5114054;28;20150;-48
2021/12/13 22:06:38;;;;;;;36.25;24.38;;;5.10;99.90;;;;;;5095976;28;20020;-51
2021/12/13 22:09:09;;;;;;;73.85;40.70;;;5.10;99.90;;;;;;5113745;28;20050;-51
2021/12/13 22:11:40;;;;;;;52.88;33.53;;;5.00;99.90;;;;;;5113967;28;20107;-50
2021/12/13 22:14:17;;;;;;;54.47;32.00;;;5.10;99.90;;;;;;5114197;28;20370;-48
2021/12/13 22:17:11;;;;;;;30.23;20.77;;;5.10;99.90;;;;;;5110533;28;20115;-53
2021/12/13 22:19:50;;;;;;;29.25;20.92;;;5.10;99.90;;;;;;5114147;28;20038;-46
2021/12/13 22:22:21;;;;;;;41.60;25.05;;;5.00;99.90;;;;;;5077909;28;20061;-48
2021/12/13 22:24:58;;;;;;;29.08;20.55;;;5.10;99.90;;;;;;5078112;28;20115;-48
2021/12/13 22:27:35;;;;;;;33.47;21.17;;;5.10;99.90;;;;;;5114067;28;20035;-49
2021/12/13 22:30:10;;;;;;;29.30;19.95;;;5.00;99.90;;;;;;5095019;28;20047;-46
2021/12/13 22:32:40;;;;;;;27.25;19.33;;;5.00;99.90;;;;;;5074943;28;20443;-48
2021/12/13 22:35:10;;;;;;;28.95;20.17;;;4.90;99.90;;;;;;5090981;28;20040;-49
2021/12/13 22:37:40;;;;;;;306.67;274.27;;;4.90;99.90;;;;;;5091138;28;20120;-50
2021/12/13 22:40:27;;;;;;;37.90;21.77;;;4.80;99.90;;;;;;5091055;28;20024;-49
2021/12/13 22:43:05;;;;;;;67.78;56.40;;;4.70;99.90;;;;;;5091075;28;20048;-48
2021/12/13 22:45:33;;;;;;;32.45;23.00;;;4.80;99.90;;;;;;5090928;28;20427;-46
2021/12/13 22:47:59;;;;;;;32.30;23.75;;;4.80;99.90;;;;;;5091112;28;20126;-50
2021/12/13 22:50:30;;;;;;;31.67;23.30;;;4.80;99.90;;;;;;5091097;28;20085;-48
2021/12/13 22:52:57;;;;;;;42.97;28.80;;;4.80;99.90;;;;;;5091078;28;20036;-49
2021/12/13 22:55:30;;;;;;;55.92;47.72;;;4.80;99.90;;;;;;5088247;28;20031;-50
2021/12/13 22:58:05;;;;;;;48.60;43.22;;;4.80;99.90;;;;;;5040725;28;20489;-47
2021/12/13 23:01:04;;;;;;;160.07;144.82;;;4.80;99.90;;;;;;5057553;28;20115;-52
2021/12/13 23:03:34;;;;;;;32.03;24.58;;;4.80;99.90;;;;;;5091059;28;20498;-51
2021/12/13 23:06:09;;;;;;;35.20;24.83;;;4.70;99.90;;;;;;5093248;28;20024;-48
2021/12/13 23:08:39;;;;;;;30.13;23.00;;;4.80;99.90;;;;;;5092791;28;20047;-48
2021/12/13 23:13:47;;;;;;;28.40;19.08;;;4.60;99.90;;;;;;5097008;28;20039;-51
2021/12/13 23:16:24;;;;;;;33.40;25.63;;;4.50;99.90;;;;;;5097087;28;20058;-51
2021/12/13 23:19:05;;;;;;;36.13;25.75;;;4.60;99.90;;;;;;5097037;28;20059;-51
2021/12/13 23:21:36;;;;;;;27.40;21.13;;;4.60;99.90;;;;;;5079857;28;20036;-50
2021/12/13 23:24:04;;;;;;;33.65;20.90;;;4.60;99.90;;;;;;5097407;28;20032;-52
2021/12/13 23:26:30;;;;;;;25.42;19.08;;;4.60;99.90;;;;;;5077917;28;20036;-51
2021/12/13 23:29:00;;;;;;;25.38;18.67;;;4.50;99.90;;;;;;5096639;28;20028;-50
2021/12/13 23:31:30;;;;;;;26.38;20.40;;;4.50;99.90;;;;;;5096871;28;20379;-51
2021/12/13 23:33:57;;;;;;;26.10;16.67;;;4.60;99.90;;;;;;5095816;28;20035;-48
2021/12/13 23:36:31;;;;;;;23.60;16.77;;;4.40;99.90;;;;;;5096418;28;20438;-49
2021/12/13 23:45:39;;;;;;;28.33;21.15;;;4.40;99.90;;;;;;5291827;22;20079;-50
2021/12/13 23:48:11;;;;;;;30.80;21.98;;;4.50;99.90;;;;;;5054663;28;20045;-52
2021/12/13 23:50:38;;;;;;;30.65;21.35;;;4.50;99.90;;;;;;5037598;28;20037;-54
2021/12/13 23:53:08;;;;;;;35.88;24.05;;;4.40;99.90;;;;;;5055698;28;20484;-50
2021/12/13 23:55:43;;;;;;;27.95;19.98;;;4.50;99.90;;;;;;5055898;28;20035;-51
2021/12/13 23:58:15;;;;;;;30.95;22.55;;;4.50;99.90;;;;;;5056152;28;20037;-50
